sensor_id;sensor_type;location;lat;lon;timestamp;P1;durP1;ratioP1;P2;durP2;ratioP2
55316;SDS011;41178;48.956;8.130;2022-10-17T00:00:41;7.70;;;6.17;;
55316;SDS011;41178;48.956;8.130;2022-10-17T00:02:43;9.17;;;6.90;;
55316;SDS011;41178;48.956;8.130;2022-10-17T00:04:45;11.47;;;6.53;;
55316;SDS011;41178;48.956;8.130;2022-10-17T00:06:46;6.63;;;5.93;;
55316;SDS011;41178;48.956;8.130;2022-10-17T00:08:48;8.63;;;5.77;;
55316;SDS011;41178;48.956;8.130;2022-10-17T00:10:56;9.27;;;5.87;;
55316;SDS011;41178;48.956;8.130;2022-10-17T00:13:00;7.63;;;6.00;;
55316;SDS011;41178;48.956;8.130;2022-10-17T00:15:05;7.23;;;5.77;;
55316;SDS011;41178;48.956;8.130;2022-10-17T00:17:07;7.47;;;5.27;;
55316;SDS011;41178;48.956;8.130;2022-10-17T00:19:09;8.03;;;5.43;;
55316;SDS011;41178;48.956;8.130;2022-10-17T00:21:14;9.27;;;5.30;;
55316;SDS011;41178;48.956;8.130;2022-10-17T00:23:17;7.00;;;4.90;;
55316;SDS011;41178;48.956;8.130;2022-10-17T00:25:19;7.63;;;5.20;;
55316;SDS011;41178;48.956;8.130;2022-10-17T00:27:21;8.90;;;5.37;;
55316;SDS011;41178;48.956;8.130;2022-10-17T00:29:23;8.23;;;4.83;;
55316;SDS011;41178;48.956;8.130;2022-10-17T00:31:24;11.10;;;6.17;;
55316;SDS011;41178;48.956;8.130;2022-10-17T00:33:27;8.50;;;6.00;;
55316;SDS011;41178;48.956;8.130;2022-10-17T00:35:29;9.07;;;6.20;;
55316;SDS011;41178;48.956;8.130;2022-10-17T00:37:31;9.27;;;5.97;;
55316;SDS011;41178;48.956;8.130;2022-10-17T00:39:33;11.23;;;6.40;;
55316;SDS011;41178;48.956;8.130;2022-10-17T00:41:35;6.60;;;5.40;;
55316;SDS011;41178;48.956;8.130;2022-10-17T00:46:35;11.90;;;5.80;;
55316;SDS011;41178;48.956;8.130;2022-10-17T00:48:38;7.90;;;5.83;;
55316;SDS011;41178;48.956;8.130;2022-10-17T00:50:40;7.63;;;5.30;;
55316;SDS011;41178;48.956;8.130;2022-10-17T00:52:44;6.43;;;5.27;;
55316;SDS011;41178;48.956;8.130;2022-10-17T00:54:50;7.20;;;5.63;;
55316;SDS011;41178;48.956;8.130;2022-10-17T00:56:54;7.50;;;5.27;;
55316;SDS011;41178;48.956;8.130;2022-10-17T00:58:56;8.67;;;5.20;;
55316;SDS011;41178;48.956;8.130;2022-10-17T01:00:59;10.03;;;5.70;;
55316;SDS011;41178;48.956;8.130;2022-10-17T01:03:03;6.30;;;5.47;;
55316;SDS011;41178;48.956;8.130;2022-10-17T01:05:05;9.20;;;5.80;;
55316;SDS011;41178;48.956;8.130;2022-10-17T01:07:08;7.73;;;5.17;;
55316;SDS011;41178;48.956;8.130;2022-10-17T01:09:10;7.53;;;5.83;;
55316;SDS011;41178;48.956;8.130;2022-10-17T01:13:40;5.70;;;5.10;;
55316;SDS011;41178;48.956;8.130;2022-10-17T01:15:58;8.13;;;5.70;;
55316;SDS011;41178;48.956;8.130;2022-10-17T01:30:09;6.83;;;4.57;;
55316;SDS011;41178;48.956;8.130;2022-10-17T01:32:17;9.13;;;5.13;;
55316;SDS011;41178;48.956;8.130;2022-10-17T01:34:30;6.50;;;4.60;;
55316;SDS011;41178;48.956;8.130;2022-10-17T01:36:38;5.70;;;4.70;;
55316;SDS011;41178;48.956;8.130;2022-10-17T01:39:20;7.93;;;5.17;;
55316;SDS011;41178;48.956;8.130;2022-10-17T01:41:37;7.20;;;4.90;;
55316;SDS011;41178;48.956;8.130;2022-10-17T01:43:42;7.80;;;5.00;;
55316;SDS011;41178;48.956;8.130;2022-10-17T01:45:57;7.47;;;4.87;;
55316;SDS011;41178;48.956;8.130;2022-10-17T01:48:04;4.53;;;4.03;;
55316;SDS011;41178;48.956;8.130;2022-10-17T01:50:16;4.97;;;3.77;;
55316;SDS011;41178;48.956;8.130;2022-10-17T01:52:24;5.10;;;3.80;;
55316;SDS011;41178;48.956;8.130;2022-10-17T01:54:32;4.63;;;4.00;;
55316;SDS011;41178;48.956;8.130;2022-10-17T01:56:41;4.23;;;3.63;;
55316;SDS011;41178;48.956;8.130;2022-10-17T01:58:53;4.63;;;3.77;;
55316;SDS011;41178;48.956;8.130;2022-10-17T02:01:02;5.40;;;3.70;;
55316;SDS011;41178;48.956;8.130;2022-10-17T02:03:07;3.60;;;3.30;;
55316;SDS011;41178;48.956;8.130;2022-10-17T02:05:13;3.90;;;3.53;;
55316;SDS011;41178;48.956;8.130;2022-10-17T02:07:17;4.07;;;3.33;;
55316;SDS011;41178;48.956;8.130;2022-10-17T02:09:22;4.40;;;4.00;;
55316;SDS011;41178;48.956;8.130;2022-10-17T02:11:26;5.03;;;3.63;;
55316;SDS011;41178;48.956;8.130;2022-10-17T02:20:39;4.47;;;3.27;;
55316;SDS011;41178;48.956;8.130;2022-10-17T02:29:14;8.70;;;3.63;;
55316;SDS011;41178;48.956;8.130;2022-10-17T02:31:20;4.90;;;3.47;;
55316;SDS011;41178;48.956;8.130;2022-10-17T02:33:30;5.47;;;3.20;;
55316;SDS011;41178;48.956;8.130;2022-10-17T02:35:37;4.53;;;2.97;;
55316;SDS011;41178;48.956;8.130;2022-10-17T02:37:43;5.47;;;3.70;;
55316;SDS011;41178;48.956;8.130;2022-10-17T02:39:47;3.97;;;3.57;;
55316;SDS011;41178;48.956;8.130;2022-10-17T02:41:51;5.67;;;4.00;;
55316;SDS011;41178;48.956;8.130;2022-10-17T02:43:55;6.00;;;3.93;;
55316;SDS011;41178;48.956;8.130;2022-10-17T02:46:02;5.13;;;3.40;;
55316;SDS011;41178;48.956;8.130;2022-10-17T02:48:09;6.40;;;3.20;;
55316;SDS011;41178;48.956;8.130;2022-10-17T02:50:18;3.53;;;3.10;;
55316;SDS011;41178;48.956;8.130;2022-10-17T02:52:50;9.00;;;3.53;;
55316;SDS011;41178;48.956;8.130;2022-10-17T02:54:58;5.97;;;3.07;;
55316;SDS011;41178;48.956;8.130;2022-10-17T02:57:13;6.73;;;3.50;;
55316;SDS011;41178;48.956;8.130;2022-10-17T02:59:19;4.17;;;3.60;;
55316;SDS011;41178;48.956;8.130;2022-10-17T03:01:23;5.60;;;3.37;;
55316;SDS011;41178;48.956;8.130;2022-10-17T03:03:26;4.03;;;3.50;;
55316;SDS011;41178;48.956;8.130;2022-10-17T03:05:30;6.07;;;3.97;;
55316;SDS011;41178;48.956;8.130;2022-10-17T03:07:31;8.27;;;3.63;;
55316;SDS011;41178;48.956;8.130;2022-10-17T03:09:33;7.20;;;3.40;;
55316;SDS011;41178;48.956;8.130;2022-10-17T03:11:35;4.50;;;3.83;;
55316;SDS011;41178;48.956;8.130;2022-10-17T03:13:36;4.37;;;3.60;;
55316;SDS011;41178;48.956;8.130;2022-10-17T03:15:40;5.87;;;3.47;;
55316;SDS011;41178;48.956;8.130;2022-10-17T03:17:41;5.40;;;3.47;;
55316;SDS011;41178;48.956;8.130;2022-10-17T03:19:43;5.80;;;3.33;;
55316;SDS011;41178;48.956;8.130;2022-10-17T03:21:45;5.53;;;3.90;;
55316;SDS011;41178;48.956;8.130;2022-10-17T03:23:46;8.00;;;4.57;;
55316;SDS011;41178;48.956;8.130;2022-10-17T03:25:48;3.87;;;3.47;;
55316;SDS011;41178;48.956;8.130;2022-10-17T03:27:50;5.23;;;3.80;;
55316;SDS011;41178;48.956;8.130;2022-10-17T03:29:52;4.93;;;3.70;;
55316;SDS011;41178;48.956;8.130;2022-10-17T03:31:53;6.57;;;3.60;;
55316;SDS011;41178;48.956;8.130;2022-10-17T03:33:55;6.00;;;3.70;;
55316;SDS011;41178;48.956;8.130;2022-10-17T03:35:56;4.27;;;3.30;;
55316;SDS011;41178;48.956;8.130;2022-10-17T03:37:58;6.67;;;3.70;;
55316;SDS011;41178;48.956;8.130;2022-10-17T03:40:00;5.80;;;3.67;;
55316;SDS011;41178;48.956;8.130;2022-10-17T03:42:01;4.73;;;3.50;;
55316;SDS011;41178;48.956;8.130;2022-10-17T03:44:03;7.47;;;3.60;;
55316;SDS011;41178;48.956;8.130;2022-10-17T03:46:05;8.50;;;3.47;;
55316;SDS011;41178;48.956;8.130;2022-10-17T03:48:07;8.07;;;3.57;;
55316;SDS011;41178;48.956;8.130;2022-10-17T03:50:09;4.97;;;3.47;;
55316;SDS011;41178;48.956;8.130;2022-10-17T03:52:11;5.03;;;3.40;;
55316;SDS011;41178;48.956;8.130;2022-10-17T03:54:13;10.83;;;3.27;;
55316;SDS011;41178;48.956;8.130;2022-10-17T03:56:16;4.77;;;3.37;;
55316;SDS011;41178;48.956;8.130;2022-10-17T03:58:24;5.20;;;3.40;;
55316;SDS011;41178;48.956;8.130;2022-10-17T04:00:26;5.30;;;3.43;;
55316;SDS011;41178;48.956;8.130;2022-10-17T04:02:27;5.23;;;3.80;;
55316;SDS011;41178;48.956;8.130;2022-10-17T04:04:29;6.27;;;3.50;;
55316;SDS011;41178;48.956;8.130;2022-10-17T04:06:31;5.23;;;3.33;;
55316;SDS011;41178;48.956;8.130;2022-10-17T04:08:33;6.33;;;3.63;;
55316;SDS011;41178;48.956;8.130;2022-10-17T04:10:35;5.33;;;3.77;;
55316;SDS011;41178;48.956;8.130;2022-10-17T04:12:36;6.33;;;3.47;;
55316;SDS011;41178;48.956;8.130;2022-10-17T04:14:38;7.47;;;3.63;;
55316;SDS011;41178;48.956;8.130;2022-10-17T04:16:40;5.07;;;3.87;;
55316;SDS011;41178;48.956;8.130;2022-10-17T04:18:42;5.27;;;3.27;;
55316;SDS011;41178;48.956;8.130;2022-10-17T04:20:44;5.23;;;3.60;;
55316;SDS011;41178;48.956;8.130;2022-10-17T04:22:45;5.87;;;3.60;;
55316;SDS011;41178;48.956;8.130;2022-10-17T04:24:47;4.10;;;3.40;;
55316;SDS011;41178;48.956;8.130;2022-10-17T04:26:49;3.83;;;3.43;;
55316;SDS011;41178;48.956;8.130;2022-10-17T04:28:51;9.10;;;3.53;;
55316;SDS011;41178;48.956;8.130;2022-10-17T04:31:00;3.87;;;3.00;;
55316;SDS011;41178;48.956;8.130;2022-10-17T04:33:09;7.03;;;4.10;;
55316;SDS011;41178;48.956;8.130;2022-10-17T04:35:11;8.30;;;3.43;;
55316;SDS011;41178;48.956;8.130;2022-10-17T04:37:13;5.23;;;3.10;;
55316;SDS011;41178;48.956;8.130;2022-10-17T04:39:14;6.63;;;3.47;;
55316;SDS011;41178;48.956;8.130;2022-10-17T04:41:16;8.53;;;3.30;;
55316;SDS011;41178;48.956;8.130;2022-10-17T04:43:19;5.93;;;3.20;;
55316;SDS011;41178;48.956;8.130;2022-10-17T04:45:20;8.33;;;3.60;;
55316;SDS011;41178;48.956;8.130;2022-10-17T04:47:22;3.97;;;3.20;;
55316;SDS011;41178;48.956;8.130;2022-10-17T04:49:24;7.70;;;3.60;;
55316;SDS011;41178;48.956;8.130;2022-10-17T04:51:25;4.90;;;3.77;;
55316;SDS011;41178;48.956;8.130;2022-10-17T04:53:27;5.13;;;3.27;;
55316;SDS011;41178;48.956;8.130;2022-10-17T04:55:35;4.67;;;3.17;;
55316;SDS011;41178;48.956;8.130;2022-10-17T04:57:38;13.00;;;3.53;;
55316;SDS011;41178;48.956;8.130;2022-10-17T04:59:40;4.23;;;3.20;;
55316;SDS011;41178;48.956;8.130;2022-10-17T05:01:42;6.90;;;3.40;;
55316;SDS011;41178;48.956;8.130;2022-10-17T05:03:43;6.90;;;3.53;;
55316;SDS011;41178;48.956;8.130;2022-10-17T05:05:45;4.50;;;3.97;;
55316;SDS011;41178;48.956;8.130;2022-10-17T05:07:47;6.83;;;3.30;;
55316;SDS011;41178;48.956;8.130;2022-10-17T05:09:49;5.43;;;3.40;;
55316;SDS011;41178;48.956;8.130;2022-10-17T05:11:50;4.37;;;3.40;;
55316;SDS011;41178;48.956;8.130;2022-10-17T05:13:53;7.33;;;3.37;;
55316;SDS011;41178;48.956;8.130;2022-10-17T05:15:58;4.50;;;3.17;;
55316;SDS011;41178;48.956;8.130;2022-10-17T05:18:02;11.33;;;3.57;;
55316;SDS011;41178;48.956;8.130;2022-10-17T05:20:06;5.27;;;3.50;;
55316;SDS011;41178;48.956;8.130;2022-10-17T05:22:08;6.27;;;3.60;;
55316;SDS011;41178;48.956;8.130;2022-10-17T05:24:10;5.53;;;3.50;;
55316;SDS011;41178;48.956;8.130;2022-10-17T05:26:14;4.93;;;3.40;;
55316;SDS011;41178;48.956;8.130;2022-10-17T05:28:16;5.17;;;3.83;;
55316;SDS011;41178;48.956;8.130;2022-10-17T05:30:18;6.80;;;3.40;;
55316;SDS011;41178;48.956;8.130;2022-10-17T05:32:19;7.30;;;3.70;;
55316;SDS011;41178;48.956;8.130;2022-10-17T05:34:21;8.07;;;3.40;;
55316;SDS011;41178;48.956;8.130;2022-10-17T05:36:22;9.10;;;3.63;;
55316;SDS011;41178;48.956;8.130;2022-10-17T05:38:24;8.93;;;3.50;;
55316;SDS011;41178;48.956;8.130;2022-10-17T05:40:27;5.03;;;3.80;;
55316;SDS011;41178;48.956;8.130;2022-10-17T05:42:28;8.50;;;3.80;;
55316;SDS011;41178;48.956;8.130;2022-10-17T05:44:30;5.97;;;3.80;;
55316;SDS011;41178;48.956;8.130;2022-10-17T05:46:32;9.30;;;3.50;;
55316;SDS011;41178;48.956;8.130;2022-10-17T05:48:33;8.13;;;3.23;;
55316;SDS011;41178;48.956;8.130;2022-10-17T05:50:35;9.33;;;4.00;;
55316;SDS011;41178;48.956;8.130;2022-10-17T05:52:37;7.73;;;3.77;;
55316;SDS011;41178;48.956;8.130;2022-10-17T05:54:38;9.33;;;4.00;;
55316;SDS011;41178;48.956;8.130;2022-10-17T05:56:40;6.63;;;4.20;;
55316;SDS011;41178;48.956;8.130;2022-10-17T05:58:42;8.73;;;3.50;;
55316;SDS011;41178;48.956;8.130;2022-10-17T06:00:51;6.33;;;3.60;;
55316;SDS011;41178;48.956;8.130;2022-10-17T06:02:58;5.63;;;3.57;;
55316;SDS011;41178;48.956;8.130;2022-10-17T06:05:00;7.10;;;3.80;;
55316;SDS011;41178;48.956;8.130;2022-10-17T06:07:01;7.63;;;3.50;;
55316;SDS011;41178;48.956;8.130;2022-10-17T06:09:03;5.13;;;3.50;;
55316;SDS011;41178;48.956;8.130;2022-10-17T06:11:05;6.00;;;3.60;;
55316;SDS011;41178;48.956;8.130;2022-10-17T06:13:10;7.37;;;4.20;;
55316;SDS011;41178;48.956;8.130;2022-10-17T06:15:12;5.33;;;4.00;;
55316;SDS011;41178;48.956;8.130;2022-10-17T06:17:14;7.23;;;3.97;;
55316;SDS011;41178;48.956;8.130;2022-10-17T06:19:16;10.17;;;4.00;;
55316;SDS011;41178;48.956;8.130;2022-10-17T06:21:20;5.30;;;3.90;;
55316;SDS011;41178;48.956;8.130;2022-10-17T06:23:25;5.93;;;4.00;;
55316;SDS011;41178;48.956;8.130;2022-10-17T06:25:31;5.27;;;3.47;;
55316;SDS011;41178;48.956;8.130;2022-10-17T06:27:33;4.33;;;3.63;;
55316;SDS011;41178;48.956;8.130;2022-10-17T06:29:35;8.20;;;3.60;;
55316;SDS011;41178;48.956;8.130;2022-10-17T06:31:37;4.40;;;4.00;;
55316;SDS011;41178;48.956;8.130;2022-10-17T06:33:38;8.37;;;4.07;;
55316;SDS011;41178;48.956;8.130;2022-10-17T06:35:40;7.67;;;6.60;;
55316;SDS011;41178;48.956;8.130;2022-10-17T06:37:42;12.00;;;5.60;;
55316;SDS011;41178;48.956;8.130;2022-10-17T06:39:44;9.63;;;5.33;;
55316;SDS011;41178;48.956;8.130;2022-10-17T06:41:45;7.93;;;4.90;;
55316;SDS011;41178;48.956;8.130;2022-10-17T06:43:47;5.47;;;4.83;;
55316;SDS011;41178;48.956;8.130;2022-10-17T06:45:49;8.47;;;4.27;;
55316;SDS011;41178;48.956;8.130;2022-10-17T06:47:50;9.80;;;4.90;;
55316;SDS011;41178;48.956;8.130;2022-10-17T06:49:52;14.30;;;7.07;;
55316;SDS011;41178;48.956;8.130;2022-10-17T06:51:54;6.70;;;5.70;;
55316;SDS011;41178;48.956;8.130;2022-10-17T06:53:56;8.40;;;5.47;;
55316;SDS011;41178;48.956;8.130;2022-10-17T06:55:58;9.07;;;6.10;;
55316;SDS011;41178;48.956;8.130;2022-10-17T06:58:04;12.37;;;5.70;;
55316;SDS011;41178;48.956;8.130;2022-10-17T07:00:06;8.90;;;4.93;;
55316;SDS011;41178;48.956;8.130;2022-10-17T07:02:09;6.17;;;4.70;;
55316;SDS011;41178;48.956;8.130;2022-10-17T07:04:11;6.43;;;4.40;;
55316;SDS011;41178;48.956;8.130;2022-10-17T07:06:13;7.73;;;4.57;;
55316;SDS011;41178;48.956;8.130;2022-10-17T07:08:14;8.80;;;4.97;;
55316;SDS011;41178;48.956;8.130;2022-10-17T07:10:17;7.10;;;4.30;;
55316;SDS011;41178;48.956;8.130;2022-10-17T07:12:18;8.77;;;4.20;;
55316;SDS011;41178;48.956;8.130;2022-10-17T07:14:20;6.20;;;3.90;;
55316;SDS011;41178;48.956;8.130;2022-10-17T07:16:22;4.43;;;3.63;;
55316;SDS011;41178;48.956;8.130;2022-10-17T07:18:24;7.30;;;4.03;;
55316;SDS011;41178;48.956;8.130;2022-10-17T07:20:25;10.57;;;4.03;;
55316;SDS011;41178;48.956;8.130;2022-10-17T07:22:27;9.80;;;4.50;;
55316;SDS011;41178;48.956;8.130;2022-10-17T07:24:29;6.80;;;3.90;;
55316;SDS011;41178;48.956;8.130;2022-10-17T07:26:30;7.67;;;5.40;;
55316;SDS011;41178;48.956;8.130;2022-10-17T07:28:32;9.73;;;5.60;;
55316;SDS011;41178;48.956;8.130;2022-10-17T07:30:36;12.33;;;5.70;;
55316;SDS011;41178;48.956;8.130;2022-10-17T07:32:37;11.23;;;5.33;;
55316;SDS011;41178;48.956;8.130;2022-10-17T07:34:39;9.67;;;5.63;;
55316;SDS011;41178;48.956;8.130;2022-10-17T07:36:40;7.90;;;5.37;;
55316;SDS011;41178;48.956;8.130;2022-10-17T07:38:42;7.73;;;5.57;;
55316;SDS011;41178;48.956;8.130;2022-10-17T07:40:44;9.17;;;5.97;;
55316;SDS011;41178;48.956;8.130;2022-10-17T07:42:45;12.10;;;6.70;;
55316;SDS011;41178;48.956;8.130;2022-10-17T07:44:47;11.57;;;6.27;;
55316;SDS011;41178;48.956;8.130;2022-10-17T07:46:49;8.80;;;4.87;;
55316;SDS011;41178;48.956;8.130;2022-10-17T07:48:50;11.10;;;5.10;;
55316;SDS011;41178;48.956;8.130;2022-10-17T07:50:52;11.93;;;5.63;;
55316;SDS011;41178;48.956;8.130;2022-10-17T07:52:54;8.07;;;4.50;;
55316;SDS011;41178;48.956;8.130;2022-10-17T07:54:55;7.60;;;4.50;;
55316;SDS011;41178;48.956;8.130;2022-10-17T07:56:57;6.00;;;5.07;;
55316;SDS011;41178;48.956;8.130;2022-10-17T07:58:59;7.40;;;5.40;;
55316;SDS011;41178;48.956;8.130;2022-10-17T08:01:08;10.37;;;6.23;;
55316;SDS011;41178;48.956;8.130;2022-10-17T08:03:16;11.50;;;6.40;;
55316;SDS011;41178;48.956;8.130;2022-10-17T08:05:18;9.50;;;5.53;;
55316;SDS011;41178;48.956;8.130;2022-10-17T08:07:19;8.63;;;5.37;;
55316;SDS011;41178;48.956;8.130;2022-10-17T08:09:27;9.17;;;5.23;;
55316;SDS011;41178;48.956;8.130;2022-10-17T08:11:28;6.87;;;4.83;;
55316;SDS011;41178;48.956;8.130;2022-10-17T08:13:30;8.17;;;4.87;;
55316;SDS011;41178;48.956;8.130;2022-10-17T08:15:32;8.47;;;4.77;;
55316;SDS011;41178;48.956;8.130;2022-10-17T08:17:34;6.03;;;5.03;;
55316;SDS011;41178;48.956;8.130;2022-10-17T08:19:37;7.80;;;4.90;;
55316;SDS011;41178;48.956;8.130;2022-10-17T08:21:40;8.63;;;4.60;;
55316;SDS011;41178;48.956;8.130;2022-10-17T08:23:43;6.17;;;4.47;;
55316;SDS011;41178;48.956;8.130;2022-10-17T08:25:45;6.17;;;4.00;;
55316;SDS011;41178;48.956;8.130;2022-10-17T08:27:47;7.67;;;4.37;;
55316;SDS011;41178;48.956;8.130;2022-10-17T08:29:49;10.70;;;4.10;;
55316;SDS011;41178;48.956;8.130;2022-10-17T08:31:54;10.90;;;4.77;;
55316;SDS011;41178;48.956;8.130;2022-10-17T08:34:02;9.73;;;4.47;;
55316;SDS011;41178;48.956;8.130;2022-10-17T08:36:04;6.83;;;4.00;;
55316;SDS011;41178;48.956;8.130;2022-10-17T08:38:06;5.50;;;3.97;;
55316;SDS011;41178;48.956;8.130;2022-10-17T08:40:20;9.63;;;4.80;;
55316;SDS011;41178;48.956;8.130;2022-10-17T08:47:10;6.40;;;4.30;;
55316;SDS011;41178;48.956;8.130;2022-10-17T08:49:22;8.97;;;4.00;;
55316;SDS011;41178;48.956;8.130;2022-10-17T08:51:57;7.47;;;4.70;;
55316;SDS011;41178;48.956;8.130;2022-10-17T08:54:15;6.67;;;3.47;;
55316;SDS011;41178;48.956;8.130;2022-10-17T08:56:21;5.67;;;3.43;;
55316;SDS011;41178;48.956;8.130;2022-10-17T08:58:48;7.17;;;4.07;;
55316;SDS011;41178;48.956;8.130;2022-10-17T09:07:44;9.10;;;3.90;;
55316;SDS011;41178;48.956;8.130;2022-10-17T09:14:54;7.57;;;3.37;;
55316;SDS011;41178;48.956;8.130;2022-10-17T09:19:48;6.13;;;3.53;;
55316;SDS011;41178;48.956;8.130;2022-10-17T09:26:55;9.90;;;3.60;;
55316;SDS011;41178;48.956;8.130;2022-10-17T09:28:58;5.07;;;3.40;;
55316;SDS011;41178;48.956;8.130;2022-10-17T09:33:20;5.60;;;3.37;;
55316;SDS011;41178;48.956;8.130;2022-10-17T09:35:42;10.73;;;3.43;;
55316;SDS011;41178;48.956;8.130;2022-10-17T09:37:46;8.07;;;3.40;;
55316;SDS011;41178;48.956;8.130;2022-10-17T09:39:49;5.53;;;3.73;;
55316;SDS011;41178;48.956;8.130;2022-10-17T09:41:55;7.73;;;3.90;;
55316;SDS011;41178;48.956;8.130;2022-10-17T09:44:07;9.87;;;4.03;;
55316;SDS011;41178;48.956;8.130;2022-10-17T09:46:30;5.27;;;3.63;;
55316;SDS011;41178;48.956;8.130;2022-10-17T09:48:44;5.67;;;3.30;;
55316;SDS011;41178;48.956;8.130;2022-10-17T09:50:53;6.80;;;3.40;;
55316;SDS011;41178;48.956;8.130;2022-10-17T09:53:17;4.67;;;3.33;;
55316;SDS011;41178;48.956;8.130;2022-10-17T09:55:36;5.63;;;3.57;;
55316;SDS011;41178;48.956;8.130;2022-10-17T09:57:58;8.10;;;3.77;;
55316;SDS011;41178;48.956;8.130;2022-10-17T10:00:04;7.70;;;3.70;;
55316;SDS011;41178;48.956;8.130;2022-10-17T10:04:14;4.20;;;3.30;;
55316;SDS011;41178;48.956;8.130;2022-10-17T10:06:18;8.77;;;3.67;;
55316;SDS011;41178;48.956;8.130;2022-10-17T10:08:21;8.23;;;4.30;;
55316;SDS011;41178;48.956;8.130;2022-10-17T10:10:26;5.70;;;3.53;;
55316;SDS011;41178;48.956;8.130;2022-10-17T10:12:30;7.80;;;4.00;;
55316;SDS011;41178;48.956;8.130;2022-10-17T10:14:36;4.32;;;3.33;;
55316;SDS011;41178;48.956;8.130;2022-10-17T10:16:42;5.53;;;3.63;;
55316;SDS011;41178;48.956;8.130;2022-10-17T10:18:47;8.38;;;3.63;;
55316;SDS011;41178;48.956;8.130;2022-10-17T10:21:37;7.93;;;3.30;;
55316;SDS011;41178;48.956;8.130;2022-10-17T10:23:18;5.43;;;3.77;;
55316;SDS011;41178;48.956;8.130;2022-10-17T10:25:21;9.05;;;4.18;;
55316;SDS011;41178;48.956;8.130;2022-10-17T10:27:23;6.80;;;3.47;;
55316;SDS011;41178;48.956;8.130;2022-10-17T10:31:44;5.43;;;3.22;;
55316;SDS011;41178;48.956;8.130;2022-10-17T10:33:47;6.70;;;3.40;;
55316;SDS011;41178;48.956;8.130;2022-10-17T10:36:02;5.43;;;3.20;;
55316;SDS011;41178;48.956;8.130;2022-10-17T10:38:14;6.18;;;3.15;;
55316;SDS011;41178;48.956;8.130;2022-10-17T10:40:31;10.00;;;3.30;;
55316;SDS011;41178;48.956;8.130;2022-10-17T10:42:38;5.10;;;3.00;;
55316;SDS011;41178;48.956;8.130;2022-10-17T10:44:40;5.38;;;2.92;;
55316;SDS011;41178;48.956;8.130;2022-10-17T10:46:42;4.88;;;2.90;;
55316;SDS011;41178;48.956;8.130;2022-10-17T10:55:33;6.18;;;3.25;;
55316;SDS011;41178;48.956;8.130;2022-10-17T10:57:40;6.23;;;3.07;;
55316;SDS011;41178;48.956;8.130;2022-10-17T11:03:15;7.57;;;3.40;;
55316;SDS011;41178;48.956;8.130;2022-10-17T11:09:49;5.10;;;3.20;;
55316;SDS011;41178;48.956;8.130;2022-10-17T11:12:19;5.55;;;3.40;;
55316;SDS011;41178;48.956;8.130;2022-10-17T11:16:51;7.00;;;3.50;;
55316;SDS011;41178;48.956;8.130;2022-10-17T11:19:10;6.88;;;3.40;;
55316;SDS011;41178;48.956;8.130;2022-10-17T11:23:52;9.70;;;3.10;;
55316;SDS011;41178;48.956;8.130;2022-10-17T11:26:02;5.97;;;3.20;;
55316;SDS011;41178;48.956;8.130;2022-10-17T11:28:18;6.30;;;3.00;;
55316;SDS011;41178;48.956;8.130;2022-10-17T11:30:23;6.05;;;3.20;;
55316;SDS011;41178;48.956;8.130;2022-10-17T11:32:42;6.05;;;3.30;;
55316;SDS011;41178;48.956;8.130;2022-10-17T11:34:48;3.97;;;3.25;;
55316;SDS011;41178;48.956;8.130;2022-10-17T11:36:56;4.18;;;2.85;;
55316;SDS011;41178;48.956;8.130;2022-10-17T11:41:07;7.60;;;3.00;;
55316;SDS011;41178;48.956;8.130;2022-10-17T11:43:27;5.93;;;2.80;;
55316;SDS011;41178;48.956;8.130;2022-10-17T11:46:10;5.55;;;3.10;;
55316;SDS011;41178;48.956;8.130;2022-10-17T11:48:29;5.53;;;3.15;;
55316;SDS011;41178;48.956;8.130;2022-10-17T11:50:38;7.10;;;3.30;;
55316;SDS011;41178;48.956;8.130;2022-10-17T11:53:05;5.57;;;3.17;;
55316;SDS011;41178;48.956;8.130;2022-10-17T11:55:15;4.38;;;2.80;;
55316;SDS011;41178;48.956;8.130;2022-10-17T11:59:40;6.95;;;3.00;;
55316;SDS011;41178;48.956;8.130;2022-10-17T12:02:03;11.15;;;3.00;;
55316;SDS011;41178;48.956;8.130;2022-10-17T12:04:34;4.75;;;2.55;;
55316;SDS011;41178;48.956;8.130;2022-10-17T12:09:54;5.35;;;3.10;;
55316;SDS011;41178;48.956;8.130;2022-10-17T12:11:53;7.80;;;3.22;;
55316;SDS011;41178;48.956;8.130;2022-10-17T12:13:57;5.45;;;2.90;;
55316;SDS011;41178;48.956;8.130;2022-10-17T12:18:19;5.47;;;3.00;;
55316;SDS011;41178;48.956;8.130;2022-10-17T12:20:30;7.18;;;3.10;;
55316;SDS011;41178;48.956;8.130;2022-10-17T12:22:33;4.03;;;2.70;;
55316;SDS011;41178;48.956;8.130;2022-10-17T12:24:39;6.80;;;2.90;;
55316;SDS011;41178;48.956;8.130;2022-10-17T12:26:42;4.18;;;2.72;;
55316;SDS011;41178;48.956;8.130;2022-10-17T12:28:44;7.80;;;3.08;;
55316;SDS011;41178;48.956;8.130;2022-10-17T12:30:49;10.80;;;2.88;;
55316;SDS011;41178;48.956;8.130;2022-10-17T12:33:15;13.70;;;3.63;;
55316;SDS011;41178;48.956;8.130;2022-10-17T12:35:23;5.35;;;3.08;;
55316;SDS011;41178;48.956;8.130;2022-10-17T12:39:45;6.03;;;3.15;;
55316;SDS011;41178;48.956;8.130;2022-10-17T12:43:52;6.75;;;3.28;;
55316;SDS011;41178;48.956;8.130;2022-10-17T12:46:03;6.07;;;3.47;;
55316;SDS011;41178;48.956;8.130;2022-10-17T12:48:08;7.97;;;2.90;;
55316;SDS011;41178;48.956;8.130;2022-10-17T12:52:56;4.57;;;2.67;;
55316;SDS011;41178;48.956;8.130;2022-10-17T12:59:51;7.28;;;2.70;;
55316;SDS011;41178;48.956;8.130;2022-10-17T13:01:58;5.30;;;2.80;;
55316;SDS011;41178;48.956;8.130;2022-10-17T13:04:03;4.97;;;2.60;;
55316;SDS011;41178;48.956;8.130;2022-10-17T13:06:18;7.10;;;2.67;;
55316;SDS011;41178;48.956;8.130;2022-10-17T13:08:27;6.00;;;3.33;;
55316;SDS011;41178;48.956;8.130;2022-10-17T13:10:56;6.47;;;2.58;;
55316;SDS011;41178;48.956;8.130;2022-10-17T13:15:17;5.13;;;3.00;;
55316;SDS011;41178;48.956;8.130;2022-10-17T13:17:21;4.35;;;2.90;;
55316;SDS011;41178;48.956;8.130;2022-10-17T13:19:28;5.43;;;2.70;;
55316;SDS011;41178;48.956;8.130;2022-10-17T13:21:31;3.92;;;2.88;;
55316;SDS011;41178;48.956;8.130;2022-10-17T13:23:34;10.35;;;3.30;;
55316;SDS011;41178;48.956;8.130;2022-10-17T13:25:37;4.07;;;2.90;;
55316;SDS011;41178;48.956;8.130;2022-10-17T13:27:39;5.03;;;2.33;;
55316;SDS011;41178;48.956;8.130;2022-10-17T13:29:42;4.13;;;2.92;;
55316;SDS011;41178;48.956;8.130;2022-10-17T13:31:44;5.20;;;2.60;;
55316;SDS011;41178;48.956;8.130;2022-10-17T13:33:56;4.38;;;2.60;;
55316;SDS011;41178;48.956;8.130;2022-10-17T13:35:59;5.70;;;2.70;;
55316;SDS011;41178;48.956;8.130;2022-10-17T13:38:04;6.63;;;2.50;;
55316;SDS011;41178;48.956;8.130;2022-10-17T13:40:19;3.60;;;2.53;;
55316;SDS011;41178;48.956;8.130;2022-10-17T13:42:46;5.38;;;3.13;;
55316;SDS011;41178;48.956;8.130;2022-10-17T13:44:49;6.43;;;2.85;;
55316;SDS011;41178;48.956;8.130;2022-10-17T13:46:50;3.38;;;2.53;;
55316;SDS011;41178;48.956;8.130;2022-10-17T13:48:53;7.47;;;2.50;;
55316;SDS011;41178;48.956;8.130;2022-10-17T13:50:55;6.35;;;2.85;;
55316;SDS011;41178;48.956;8.130;2022-10-17T13:53:05;5.90;;;2.60;;
55316;SDS011;41178;48.956;8.130;2022-10-17T13:55:11;3.90;;;2.50;;
55316;SDS011;41178;48.956;8.130;2022-10-17T13:57:25;5.68;;;2.67;;
55316;SDS011;41178;48.956;8.130;2022-10-17T13:59:38;5.03;;;2.83;;
55316;SDS011;41178;48.956;8.130;2022-10-17T14:01:42;3.13;;;2.45;;
55316;SDS011;41178;48.956;8.130;2022-10-17T14:03:44;5.53;;;2.65;;
55316;SDS011;41178;48.956;8.130;2022-10-17T14:06:02;5.60;;;2.90;;
55316;SDS011;41178;48.956;8.130;2022-10-17T14:08:12;4.13;;;2.70;;
55316;SDS011;41178;48.956;8.130;2022-10-17T14:10:34;4.90;;;2.42;;
55316;SDS011;41178;48.956;8.130;2022-10-17T14:12:37;9.20;;;2.97;;
55316;SDS011;41178;48.956;8.130;2022-10-17T14:14:45;4.15;;;2.80;;
55316;SDS011;41178;48.956;8.130;2022-10-17T14:17:14;4.40;;;2.53;;
55316;SDS011;41178;48.956;8.130;2022-10-17T14:19:31;4.13;;;2.83;;
55316;SDS011;41178;48.956;8.130;2022-10-17T14:21:37;5.90;;;2.83;;